Cheikh El Mokrani — C6WD5 — position and weather

sailwx.info

Track history (hours):
 
Tides and Currents Weather Stations Pressure Air Temp Water Temp Dewpoint Dewpoint Depression Visibility Wind Speed Wind Dir Waves Ship Positions

Cheikh El Mokrani

Last reported at 2015-Jul-30 19:33 UTC. Time now 2015-Jul-30 20:19 UTC.
Position N 37°57' E 023°23'.

Length 220 m; draft 10.1 m.

Type: Ship (hazmat cat D). MMSI: 309979000.

Date/timePositionNaut miles runAvg speedWind from/ knotsBaromVisibWave heightAir tempDewpointWater temp
2015-Jul-30 19:33N 37°57' E 023°23'0 0.1
2015-Jul-30 18:33N 37°57' E 023°23'0 0.1
2015-Jul-30 17:33N 37°57' E 023°23'0 0.4
2015-Jul-30 16:33N 37°57' E 023°23'1 0.5
2015-Jul-30 15:33N 37°57' E 023°22'0 0.0
2015-Jul-30 14:33N 37°57' E 023°22'0 0.0
2015-Jul-30 13:33N 37°57' E 023°22'0 0.0
2015-Jul-30 12:33N 37°57' E 023°22'0 0.0
2015-Jul-30 11:33N 37°57' E 023°22'0 0.0
2015-Jul-30 10:33N 37°57' E 023°22'0 0.0
2015-Jul-30 09:33N 37°57' E 023°22'0 0.0
2015-Jul-30 08:33N 37°57' E 023°22'0 0.0
2015-Jul-30 07:33N 37°57' E 023°22'0 0.0
2015-Jul-30 06:33N 37°57' E 023°22'0 0.1
2015-Jul-30 05:33N 37°57' E 023°22'0 0.1
2015-Jul-30 04:33N 37°57' E 023°22'0 0.0
2015-Jul-30 03:34N 37°57' E 023°22'0 0.2
2015-Jul-30 02:33N 37°57' E 023°22'0 0.0
2015-Jul-30 01:34N 37°57' E 023°22'0 0.1
2015-Jul-30 00:33N 37°57' E 023°22'0 0.1
2015-Jul-29 23:34N 37°57' E 023°22'0 0.1
2015-Jul-29 22:33N 37°57' E 023°22'0 0.1
2015-Jul-29 21:33N 37°57' E 023°22'0 0.0
2015-Jul-29 20:33N 37°57' E 023°22'0 0.0
2015-Jul-29 19:33N 37°57' E 023°22'0 0.1
2015-Jul-29 18:34N 37°57' E 023°22'0 0.1
2015-Jul-29 17:33N 37°57' E 023°22'0 0.0
2015-Jul-29 16:33N 37°57' E 023°22'0 0.0
2015-Jul-29 15:33N 37°57' E 023°22'0 0.0
2015-Jul-29 14:33N 37°57' E 023°22'0 0.0
2015-Jul-29 13:34N 37°57' E 023°22'0 0.0
2015-Jul-29 12:33N 37°57' E 023°22'0 0.0
2015-Jul-29 11:33N 37°57' E 023°22'0 0.0
2015-Jul-29 10:33N 37°57' E 023°22'0 0.1
2015-Jul-29 09:32N 37°57' E 023°22'5 4.9
2015-Jul-29 08:33N 37°52' E 023°22'1413.7
2015-Jul-29 07:33N 37°50' E 023°39'1111.0
2015-Jul-29 06:33N 37°40' E 023°45'1110.6
2015-Jul-29 05:33N 37°30' E 023°48'1110.9
2015-Jul-29 04:33N 37°19' E 023°45'1010.2
2015-Jul-29 03:33N 37°09' E 023°41'1010.5
2015-Jul-29 02:33N 36°59' E 023°37'1110.8
2015-Jul-29 01:33N 36°49' E 023°33'1111.3
2015-Jul-29 00:33N 36°38' E 023°28'1111.2
2015-Jul-28 23:33N 36°28' E 023°24'1111.1
2015-Jul-28 22:33N 36°17' E 023°20'1110.7
2015-Jul-28 21:33N 36°07' E 023°16'11 8.7
2015-Jul-28 20:20N 36°01' E 023°04'36915.5
2015-Jul-27 20:32N 36°19' E 015°28'1616.6
2015-Jul-27 19:33N 36°21' E 015°08'1716.7
2015-Jul-27 18:33N 36°24' E 014°48'1716.9
2015-Jul-27 17:33N 36°29' E 014°28'1716.8
2015-Jul-27 16:33N 36°33' E 014°07'1716.8
2015-Jul-27 15:33N 36°36' E 013°47'1717.1
2015-Jul-27 14:33N 36°40' E 013°26'1717.0
2015-Jul-27 13:33N 36°44' E 013°06'1716.7
2015-Jul-27 12:33N 36°48' E 012°45'1716.5
2015-Jul-27 11:30N 36°53' E 012°24'1616.8
2015-Jul-27 10:33N 36°58' E 012°06'1716.5
2015-Jul-27 09:32N 37°06' E 011°47'233 5.4
2015-Jul-25 14:31N 36°55' E 006°56'0 0.3
2015-Jul-25 13:33N 36°56' E 006°57'2 1.5
2015-Jul-25 12:24N 36°57' E 006°57'4 4.2
2015-Jul-25 11:33N 37°01' E 006°58'1 0.1
2015-Jul-24 18:22N 37°02' E 006°58'3 1.5
2015-Jul-24 16:26N 36°59' E 006°59'1 0.2
2015-Jul-24 07:34N 37°00' E 006°59'1 0.6
2015-Jul-24 06:12N 36°59' E 006°59'3 0.1
2015-Jul-22 20:33N 37°02' E 006°58'1 0.6
2015-Jul-22 18:10N 37°02' E 006°59'1 1.3
2015-Jul-22 17:34N 37°02' E 006°59'2 1.9
2015-Jul-22 16:33N 37°01' E 006°58'42 4.5
2015-Jul-22 07:07N 37°10' E 006°07'1015.2
2015-Jul-22 06:28N 37°10' E 005°55'2115.6
2015-Jul-22 05:09N 37°08' E 005°29'915.5
2015-Jul-22 04:33N 37°08' E 005°17'1715.2
2015-Jul-22 03:27N 37°07' E 004°56'1415.2
2015-Jul-22 02:33N 37°06' E 004°39'1515.0
2015-Jul-22 01:33N 37°05' E 004°20'1515.2
2015-Jul-22 00:33N 37°04' E 004°01'1515.4
2015-Jul-21 23:33N 37°03' E 003°42'1515.3
2015-Jul-21 22:33N 36°60' E 003°23'1615.6
2015-Jul-21 21:33N 36°58' E 003°04'1615.7
2015-Jul-21 20:33N 36°55' E 002°45'1515.3
2015-Jul-21 19:33N 36°52' E 002°26'1515.2
2015-Jul-21 18:33N 36°49' E 002°07'1515.2
2015-Jul-21 17:33N 36°46' E 001°49'1514.8
2015-Jul-21 16:34N 36°43' E 001°31'1514.6
2015-Jul-21 15:33N 36°39' E 001°13'1515.3
2015-Jul-21 14:33N 36°34' E 000°55'1616.0
2015-Jul-21 13:33N 36°30' E 000°36'1616.2
2015-Jul-21 12:34N 36°20' E 000°20'1616.1
2015-Jul-21 11:33N 36°09' E 000°05'1615.6
2015-Jul-21 10:33N 35°58' W 000°09'  
Track history (hours):
 
Tides and Currents Weather Stations Pressure Air Temp Water Temp Dewpoint Dewpoint Depression Visibility Wind Speed Wind Dir Waves Ship Positions

Cheikh El Mokrani

Last reported at 2015-Jul-30 19:33 UTC. Time now 2015-Jul-30 20:19 UTC.
Position N 37°57' E 023°23'.

Length 220 m; draft 10.1 m.

Type: Ship (hazmat cat D). MMSI: 309979000.

Date/timePositionNaut miles runAvg speedWind from/ knotsBaromVisibWave heightAir tempDewpointWater temp
2015-Jul-30 19:33N 37°57' E 023°23'0 0.1
2015-Jul-30 18:33N 37°57' E 023°23'0 0.1
2015-Jul-30 17:33N 37°57' E 023°23'0 0.4
2015-Jul-30 16:33N 37°57' E 023°23'1 0.5
2015-Jul-30 15:33N 37°57' E 023°22'0 0.0
2015-Jul-30 14:33N 37°57' E 023°22'0 0.0
2015-Jul-30 13:33N 37°57' E 023°22'0 0.0
2015-Jul-30 12:33N 37°57' E 023°22'0 0.0
2015-Jul-30 11:33N 37°57' E 023°22'0 0.0
2015-Jul-30 10:33N 37°57' E 023°22'0 0.0
2015-Jul-30 09:33N 37°57' E 023°22'0 0.0
2015-Jul-30 08:33N 37°57' E 023°22'0 0.0
2015-Jul-30 07:33N 37°57' E 023°22'0 0.0
2015-Jul-30 06:33N 37°57' E 023°22'0 0.1
2015-Jul-30 05:33N 37°57' E 023°22'0 0.1
2015-Jul-30 04:33N 37°57' E 023°22'0 0.0
2015-Jul-30 03:34N 37°57' E 023°22'0 0.2
2015-Jul-30 02:33N 37°57' E 023°22'0 0.0
2015-Jul-30 01:34N 37°57' E 023°22'0 0.1
2015-Jul-30 00:33N 37°57' E 023°22'0 0.1
2015-Jul-29 23:34N 37°57' E 023°22'0 0.1
2015-Jul-29 22:33N 37°57' E 023°22'0 0.1
2015-Jul-29 21:33N 37°57' E 023°22'0 0.0
2015-Jul-29 20:33N 37°57' E 023°22'0 0.0
2015-Jul-29 19:33N 37°57' E 023°22'0 0.1
2015-Jul-29 18:34N 37°57' E 023°22'0 0.1
2015-Jul-29 17:33N 37°57' E 023°22'0 0.0
2015-Jul-29 16:33N 37°57' E 023°22'0 0.0
2015-Jul-29 15:33N 37°57' E 023°22'0 0.0
2015-Jul-29 14:33N 37°57' E 023°22'0 0.0
2015-Jul-29 13:34N 37°57' E 023°22'0 0.0
2015-Jul-29 12:33N 37°57' E 023°22'0 0.0
2015-Jul-29 11:33N 37°57' E 023°22'0 0.0
2015-Jul-29 10:33N 37°57' E 023°22'0 0.1
2015-Jul-29 09:32N 37°57' E 023°22'5 4.9
2015-Jul-29 08:33N 37°52' E 023°22'1413.7
2015-Jul-29 07:33N 37°50' E 023°39'1111.0
2015-Jul-29 06:33N 37°40' E 023°45'1110.6
2015-Jul-29 05:33N 37°30' E 023°48'1110.9
2015-Jul-29 04:33N 37°19' E 023°45'1010.2
2015-Jul-29 03:33N 37°09' E 023°41'1010.5
2015-Jul-29 02:33N 36°59' E 023°37'1110.8
2015-Jul-29 01:33N 36°49' E 023°33'1111.3
2015-Jul-29 00:33N 36°38' E 023°28'1111.2
2015-Jul-28 23:33N 36°28' E 023°24'1111.1
2015-Jul-28 22:33N 36°17' E 023°20'1110.7
2015-Jul-28 21:33N 36°07' E 023°16'11 8.7
2015-Jul-28 20:20N 36°01' E 023°04'36915.5
2015-Jul-27 20:32N 36°19' E 015°28'1616.6
2015-Jul-27 19:33N 36°21' E 015°08'1716.7
2015-Jul-27 18:33N 36°24' E 014°48'1716.9
2015-Jul-27 17:33N 36°29' E 014°28'1716.8
2015-Jul-27 16:33N 36°33' E 014°07'1716.8
2015-Jul-27 15:33N 36°36' E 013°47'1717.1
2015-Jul-27 14:33N 36°40' E 013°26'1717.0
2015-Jul-27 13:33N 36°44' E 013°06'1716.7
2015-Jul-27 12:33N 36°48' E 012°45'1716.5
2015-Jul-27 11:30N 36°53' E 012°24'1616.8
2015-Jul-27 10:33N 36°58' E 012°06'1716.5
2015-Jul-27 09:32N 37°06' E 011°47'233 5.4
2015-Jul-25 14:31N 36°55' E 006°56'0 0.3
2015-Jul-25 13:33N 36°56' E 006°57'2 1.5
2015-Jul-25 12:24N 36°57' E 006°57'4 4.2
2015-Jul-25 11:33N 37°01' E 006°58'1 0.1
2015-Jul-24 18:22N 37°02' E 006°58'3 1.5
2015-Jul-24 16:26N 36°59' E 006°59'1 0.2
2015-Jul-24 07:34N 37°00' E 006°59'1 0.6
2015-Jul-24 06:12N 36°59' E 006°59'3 0.1
2015-Jul-22 20:33N 37°02' E 006°58'1 0.6
2015-Jul-22 18:10N 37°02' E 006°59'1 1.3
2015-Jul-22 17:34N 37°02' E 006°59'2 1.9
2015-Jul-22 16:33N 37°01' E 006°58'42 4.5
2015-Jul-22 07:07N 37°10' E 006°07'1015.2
2015-Jul-22 06:28N 37°10' E 005°55'2115.6
2015-Jul-22 05:09N 37°08' E 005°29'915.5
2015-Jul-22 04:33N 37°08' E 005°17'1715.2
2015-Jul-22 03:27N 37°07' E 004°56'1415.2
2015-Jul-22 02:33N 37°06' E 004°39'1515.0
2015-Jul-22 01:33N 37°05' E 004°20'1515.2
2015-Jul-22 00:33N 37°04' E 004°01'1515.4
2015-Jul-21 23:33N 37°03' E 003°42'1515.3
2015-Jul-21 22:33N 36°60' E 003°23'1615.6
2015-Jul-21 21:33N 36°58' E 003°04'1615.7
2015-Jul-21 20:33N 36°55' E 002°45'1515.3
2015-Jul-21 19:33N 36°52' E 002°26'1515.2
2015-Jul-21 18:33N 36°49' E 002°07'1515.2
2015-Jul-21 17:33N 36°46' E 001°49'1514.8
2015-Jul-21 16:34N 36°43' E 001°31'1514.6
2015-Jul-21 15:33N 36°39' E 001°13'1515.3
2015-Jul-21 14:33N 36°34' E 000°55'1616.0
2015-Jul-21 13:33N 36°30' E 000°36'1616.2
2015-Jul-21 12:34N 36°20' E 000°20'1616.1
2015-Jul-21 11:33N 36°09' E 000°05'1615.6
2015-Jul-21 10:33N 35°58' W 000°09'  

Dump ship's entire track history